createdAt,value
2022-08-07T00:01:44.685Z,100.00
2022-08-07T00:06:33.019Z,100.00
2022-08-07T00:11:47.849Z,100.00
2022-08-07T00:16:58.415Z,100.00
2022-08-07T00:22:03.328Z,100.00
2022-08-07T00:27:07.721Z,100.00
2022-08-07T00:32:13.804Z,100.00
2022-08-07T00:37:18.497Z,100.00
2022-08-07T00:42:29.222Z,100.00
2022-08-07T00:48:08.963Z,100.00
2022-08-07T00:52:56.153Z,100.00
2022-08-07T00:57:59.198Z,100.00
2022-08-07T01:03:02.636Z,100.00
2022-08-07T01:08:09.103Z,100.00
2022-08-07T01:13:11.915Z,100.00
2022-08-07T01:18:19.217Z,100.00
2022-08-07T01:23:35.399Z,100.00
2022-08-07T01:28:45.830Z,100.00
2022-08-07T01:33:55.927Z,100.00
2022-08-07T01:39:01.882Z,100.00
2022-08-07T01:44:13.342Z,100.00
2022-08-07T01:49:15.936Z,100.00
2022-08-07T01:54:33.255Z,100.00
2022-08-07T01:59:45.247Z,100.00
2022-08-07T02:04:56.087Z,100.00
2022-08-07T02:10:02.699Z,100.00
2022-08-07T02:15:08.056Z,100.00
2022-08-07T02:20:17.123Z,100.00
2022-08-07T02:26:10.275Z,100.00
2022-08-07T02:30:49.480Z,100.00
2022-08-07T02:36:30.618Z,100.00
2022-08-07T02:41:21.471Z,100.00
2022-08-07T02:46:27.330Z,100.00
2022-08-07T02:51:49.628Z,100.00
2022-08-07T02:56:57.544Z,100.00
2022-08-07T03:02:02.428Z,100.00
2022-08-07T03:07:07.291Z,100.00
2022-08-07T03:12:22.309Z,100.00
2022-08-07T03:17:52.963Z,100.00
2022-08-07T03:22:58.762Z,100.00
2022-08-07T03:28:09.602Z,100.00
2022-08-07T03:33:26.998Z,100.00
2022-08-07T03:38:36.210Z,100.00
2022-08-07T03:43:44.008Z,100.00
2022-08-07T03:49:03.103Z,100.00
2022-08-07T03:54:35.431Z,100.00
2022-08-07T03:59:32.227Z,100.00
2022-08-07T04:04:35.683Z,100.00
2022-08-07T04:09:45.324Z,100.00
2022-08-07T04:14:55.186Z,100.00
2022-08-07T04:19:58.901Z,100.00
2022-08-07T04:25:02.329Z,100.00
2022-08-07T04:30:11.883Z,100.00
2022-08-07T04:35:24.392Z,100.00
2022-08-07T04:40:29.982Z,100.00
2022-08-07T04:45:57.697Z,100.00
2022-08-07T04:51:09.342Z,100.00
2022-08-07T04:58:12.790Z,100.00
2022-08-07T05:01:50.522Z,100.00
2022-08-07T05:06:57.942Z,100.00
2022-08-07T05:12:06.736Z,100.00
2022-08-07T05:17:50.278Z,100.00
2022-08-07T05:22:39.942Z,100.00
2022-08-07T05:28:16.231Z,100.00
2022-08-07T05:33:10.421Z,100.00
2022-08-07T05:39:00.302Z,100.00
2022-08-07T05:43:50.237Z,100.00
2022-08-07T05:49:12.197Z,100.00
2022-08-07T05:54:30.971Z,100.00
2022-08-07T05:59:57.200Z,100.00
2022-08-07T06:05:06.871Z,100.00
2022-08-07T06:10:15.303Z,100.00
2022-08-07T06:15:20.802Z,100.00
2022-08-07T06:20:38.106Z,100.00
2022-08-07T06:25:54.336Z,100.00
2022-08-07T06:30:59.444Z,100.00
2022-08-07T06:36:06.611Z,86.03
2022-08-07T06:42:00.994Z,75.58
2022-08-07T06:46:44.150Z,66.75
2022-08-07T06:52:02.884Z,63.80
2022-08-07T06:57:10.509Z,61.31
2022-08-07T07:02:49.052Z,59.28
2022-08-07T07:07:59.403Z,54.41
2022-08-07T07:13:15.655Z,49.79
2022-08-07T07:18:47.512Z,48.20
2022-08-07T07:24:09.878Z,48.50
2022-08-07T07:29:38.413Z,42.09
2022-08-07T07:34:39.718Z,42.21
2022-08-07T07:39:52.463Z,41.95
2022-08-07T07:45:00.722Z,41.11
2022-08-07T07:50:34.218Z,41.18
2022-08-07T07:55:37.623Z,38.82
2022-08-07T08:00:54.073Z,41.29
2022-08-07T08:05:57.825Z,38.59
2022-08-07T08:11:02.488Z,35.80
2022-08-07T08:16:07.810Z,37.37
2022-08-07T08:21:55.540Z,35.83
2022-08-07T08:27:09.761Z,32.25
2022-08-07T08:32:18.981Z,34.76
2022-08-07T08:38:01.736Z,32.84
2022-08-07T08:42:59.434Z,33.69
2022-08-07T08:48:10.755Z,33.69
2022-08-07T08:53:20.363Z,31.06
2022-08-07T08:58:33.243Z,31.39
2022-08-07T09:03:47.444Z,32.67
2022-08-07T09:09:00.724Z,32.12
2022-08-07T09:14:13.199Z,33.44
2022-08-07T09:19:53.487Z,32.42
2022-08-07T09:25:00.517Z,33.88
2022-08-07T09:30:14.378Z,32.00
2022-08-07T09:36:03.282Z,31.93
2022-08-07T09:41:07.573Z,30.86
2022-08-07T09:47:25.644Z,30.02
2022-08-07T09:52:16.189Z,29.55
2022-08-07T09:57:53.280Z,31.91
2022-08-07T10:04:06.005Z,33.67
2022-08-07T10:09:10.934Z,31.25
2022-08-07T10:14:32.982Z,31.59
2022-08-07T10:19:51.260Z,31.13
2022-08-07T10:25:13.235Z,30.89
2022-08-07T10:30:18.882Z,31.26
2022-08-07T10:35:56.280Z,31.51
2022-08-07T10:41:02.057Z,30.06
2022-08-07T10:46:14.527Z,29.84
2022-08-07T10:51:39.054Z,29.42
2022-08-07T10:56:54.282Z,29.74
2022-08-07T11:02:12.149Z,28.26
2022-08-07T11:07:58.440Z,28.12
2022-08-07T11:13:02.266Z,30.35
2022-08-07T11:18:12.534Z,30.56
2022-08-07T11:23:30.900Z,29.76
2022-08-07T11:28:55.571Z,30.96
2022-08-07T11:34:06.247Z,29.13
2022-08-07T11:39:59.013Z,30.27
2022-08-07T11:44:59.620Z,30.99
2022-08-07T11:50:32.603Z,30.75
2022-08-07T11:56:09.395Z,30.74
2022-08-07T12:01:58.739Z,33.57
2022-08-07T12:07:18.998Z,36.81
2022-08-07T12:12:38.813Z,32.35
2022-08-07T12:17:59.412Z,32.51
2022-08-07T12:24:05.589Z,34.33
2022-08-07T12:28:53.950Z,29.19
2022-08-07T12:34:01.839Z,27.45
2022-08-07T12:39:09.504Z,28.99
2022-08-07T12:44:34.419Z,27.78
2022-08-07T12:49:50.984Z,29.15
2022-08-07T12:55:05.191Z,28.33
2022-08-07T13:00:16.437Z,29.76
2022-08-07T13:06:03.406Z,28.68
2022-08-07T13:11:28.528Z,30.88
2022-08-07T13:16:41.900Z,29.05
2022-08-07T13:21:57.508Z,28.33
2022-08-07T13:27:12.756Z,27.70
2022-08-07T13:32:32.207Z,27.43
2022-08-07T13:37:47.317Z,28.44
2022-08-07T13:43:06.287Z,29.30
2022-08-07T13:48:27.577Z,29.70
2022-08-07T13:53:59.749Z,29.98
2022-08-07T13:59:05.813Z,30.23
2022-08-07T14:04:21.443Z,29.65
2022-08-07T14:10:12.205Z,29.45
2022-08-07T14:14:54.559Z,30.14
2022-08-07T14:20:41.190Z,29.01
2022-08-07T14:25:39.642Z,28.89
2022-08-07T14:30:52.300Z,28.98
2022-08-07T14:35:59.989Z,30.04
2022-08-07T14:41:14.719Z,29.59
2022-08-07T14:46:30.567Z,29.39
2022-08-07T14:52:04.971Z,29.61
2022-08-07T14:57:02.253Z,30.66
2022-08-07T15:02:33.026Z,30.31
2022-08-07T15:07:51.173Z,30.70
2022-08-07T15:12:58.358Z,31.26
2022-08-07T15:18:05.202Z,31.34
2022-08-07T15:25:15.254Z,33.20
2022-08-07T15:34:14.955Z,33.39
2022-08-07T15:39:25.873Z,34.59
2022-08-07T15:44:31.095Z,34.66
2022-08-07T15:50:05.125Z,35.07
2022-08-07T15:55:03.515Z,34.25
2022-08-07T16:00:08.332Z,35.26
2022-08-07T16:05:15.562Z,34.97
2022-08-07T16:10:22.750Z,34.36
2022-08-07T16:15:55.731Z,34.01
2022-08-07T16:21:56.938Z,35.09
2022-08-07T16:26:59.505Z,35.64
2022-08-07T16:32:04.903Z,35.41
2022-08-07T16:38:05.527Z,36.30
2022-08-07T16:43:04.415Z,35.83
2022-08-07T16:49:10.544Z,36.25
2022-08-07T16:54:32.625Z,36.86
2022-08-07T16:59:51.194Z,36.14
2022-08-07T17:05:08.097Z,35.58
2022-08-07T17:10:38.358Z,35.59
2022-08-07T17:15:51.746Z,35.80
2022-08-07T17:20:55.858Z,35.70
2022-08-07T17:26:23.529Z,36.72
2022-08-07T17:32:03.177Z,37.33
2022-08-07T17:38:05.788Z,37.44
2022-08-07T17:42:59.685Z,38.31
2022-08-07T17:48:10.411Z,39.94
2022-08-07T17:54:01.768Z,42.17
2022-08-07T17:59:00.577Z,45.99
2022-08-07T18:04:16.646Z,46.96
2022-08-07T18:10:05.642Z,49.65
2022-08-07T18:14:50.578Z,50.74
2022-08-07T18:21:02.612Z,51.66
2022-08-07T18:25:39.237Z,54.79
2022-08-07T18:30:53.406Z,56.42
2022-08-07T18:36:10.273Z,59.56
2022-08-07T18:41:20.615Z,60.40
2022-08-07T18:46:28.534Z,65.41
2022-08-07T18:52:35.544Z,68.23
2022-08-07T18:57:30.306Z,71.92
2022-08-07T19:02:43.670Z,76.26
2022-08-07T19:07:58.674Z,79.21
2022-08-07T19:13:11.643Z,82.20
2022-08-07T19:18:34.145Z,84.33
2022-08-07T19:23:59.022Z,87.20
2022-08-07T19:30:55.313Z,90.19
2022-08-07T19:34:32.663Z,93.83
2022-08-07T19:39:57.414Z,96.52
2022-08-07T19:45:08.390Z,98.30
2022-08-07T19:50:41.355Z,100.00
2022-08-07T19:55:58.001Z,100.00
2022-08-07T20:00:59.818Z,100.00
2022-08-07T20:06:06.885Z,100.00
2022-08-07T20:11:34.051Z,100.00
2022-08-07T20:16:48.001Z,100.00
2022-08-07T20:21:58.776Z,100.00
2022-08-07T20:27:11.659Z,100.00
2022-08-07T20:32:23.251Z,100.00
2022-08-07T20:37:34.003Z,100.00
2022-08-07T20:42:47.420Z,100.00
2022-08-07T20:47:58.608Z,100.00
2022-08-07T20:53:01.631Z,100.00
2022-08-07T20:58:19.177Z,100.00
2022-08-07T21:03:25.990Z,100.00
2022-08-07T21:08:37.157Z,100.00
2022-08-07T21:14:20.146Z,100.00
2022-08-07T21:19:14.175Z,100.00
2022-08-07T21:24:27.342Z,100.00
2022-08-07T21:29:52.899Z,100.00
2022-08-07T21:34:59.099Z,100.00
2022-08-07T21:40:08.425Z,100.00
2022-08-07T21:46:08.602Z,100.00
2022-08-07T21:50:51.946Z,100.00
2022-08-07T21:56:03.908Z,100.00
2022-08-07T22:01:14.507Z,100.00
2022-08-07T22:06:30.272Z,100.00
2022-08-07T22:12:05.831Z,100.00
2022-08-07T22:17:02.121Z,100.00
2022-08-07T22:22:28.852Z,100.00
2022-08-07T22:28:08.002Z,100.00
2022-08-07T22:33:09.385Z,100.00
2022-08-07T22:38:20.569Z,100.00
2022-08-07T22:43:34.077Z,100.00
2022-08-07T22:49:01.314Z,100.00
2022-08-07T22:54:31.378Z,100.00
2022-08-07T22:59:50.903Z,100.00
2022-08-07T23:06:07.513Z,100.00
2022-08-07T23:10:41.244Z,100.00
2022-08-07T23:16:05.639Z,100.00
2022-08-07T23:21:30.452Z,100.00
2022-08-07T23:26:56.581Z,100.00
2022-08-07T23:34:23.082Z,100.00
2022-08-07T23:38:01.657Z,100.00
2022-08-07T23:43:23.322Z,100.00
2022-08-07T23:48:47.040Z,100.00
2022-08-07T23:53:57.079Z,100.00
2022-08-07T23:59:10.459Z,100.00
